X  Tanca Dades meteorològiques de l'aviació METAR        LGTS Thessaloniki Macedonia International
Temperatura
11°C Temperatura
6°C Rosada
71% Humitat



Vent
1 M/S
3 MPH
6 KM/H
3 NUS



-1°
VRB
Condicions actuals

Mostly Clear Majoritàriament clar
Pressió 1016 (hPa) - 30 (inHg)
Visibilitat 6 (milla) - 10 (km)
Aeroport
Codi aeroport LGTS

Ubicació: Thessaloniki Macedonia International
Distància: 85 (km)

Metar:
METAR LGTS 240150Z VRB03KT 9999 FEW030 11/06 Q1016 NOSIG

Temps: 24-02-2024 03:50 EET